Time;durP1;ratioP1;P1;durP2;ratioP2;P2;SDS_P1;SDS_P2;PMS_P1;PMS_P2;Temp;Humidity;BMP_temperature;BMP_pressure;BME280_temperature;BME280_humidity;BME280_pressure;Samples;Min_cycle;Max_cycle;Signal;HPM_P1;HPM_P2
2021/07/15 00:00:11;;;;;;;0.82;0.75;;;16.80;76.10;;;;;;5055854;28;20045;-78
2021/07/15 00:02:37;;;;;;;1.38;1.15;;;16.80;75.90;;;;;;5052208;28;20033;-79
2021/07/15 00:05:13;;;;;;;1.20;0.98;;;16.80;75.70;;;;;;5035956;28;20035;-78
2021/07/15 00:07:39;;;;;;;1.13;0.90;;;16.80;76.00;;;;;;5035795;28;20373;-78
2021/07/15 00:10:18;;;;;;;0.98;0.80;;;16.70;76.30;;;;;;5035543;28;20048;-78
2021/07/15 00:12:44;;;;;;;1.40;1.10;;;16.70;76.30;;;;;;5050446;28;20064;-78
2021/07/15 00:15:13;;;;;;;1.08;0.90;;;16.60;76.40;;;;;;5050978;28;20021;-78
2021/07/15 00:17:39;;;;;;;1.17;0.90;;;16.60;76.70;;;;;;5034207;28;20026;-78
2021/07/15 00:20:10;;;;;;;1.20;0.95;;;16.60;76.80;;;;;;5055746;28;20092;-78
2021/07/15 00:22:42;;;;;;;1.20;0.90;;;16.50;76.90;;;;;;5054594;28;20075;-78
2021/07/15 00:25:11;;;;;;;1.55;0.93;;;16.50;77.00;;;;;;5055568;28;20025;-78
2021/07/15 00:27:38;;;;;;;1.10;1.00;;;16.50;76.80;;;;;;5053201;28;20037;-78
2021/07/15 00:30:05;;;;;;;1.17;0.90;;;16.50;76.80;;;;;;5055677;28;20107;-78
2021/07/15 00:32:31;;;;;;;1.73;1.05;;;16.50;76.70;;;;;;5051369;28;20056;-78
2021/07/15 00:34:57;;;;;;;1.10;0.88;;;16.50;76.70;;;;;;5039605;28;20092;-78
2021/07/15 00:37:23;;;;;;;1.20;1.00;;;16.50;76.90;;;;;;5054613;28;20483;-78
2021/07/15 00:39:49;;;;;;;1.30;0.90;;;16.40;76.90;;;;;;5054035;28;20104;-78
2021/07/15 00:42:15;;;;;;;1.02;0.93;;;16.50;76.80;;;;;;5054207;28;20104;-78
2021/07/15 00:44:40;;;;;;;2.40;1.25;;;16.40;76.80;;;;;;5054146;28;20029;-78
2021/07/15 00:47:06;;;;;;;1.20;0.90;;;16.40;76.50;;;;;;5045647;28;20393;-78
2021/07/15 00:49:32;;;;;;;1.10;1.00;;;16.40;77.00;;;;;;5035210;28;20108;-78
2021/07/15 00:51:58;;;;;;;1.20;1.10;;;16.40;77.30;;;;;;5044179;28;20033;-78
2021/07/15 00:54:23;;;;;;;1.17;1.02;;;16.30;77.00;;;;;;5073104;28;20078;-78
2021/07/15 00:56:51;;;;;;;1.20;1.08;;;16.30;77.30;;;;;;5048608;28;20029;-78
2021/07/15 00:59:20;;;;;;;1.08;0.90;;;16.30;77.30;;;;;;5035016;28;20064;-78
2021/07/15 01:01:47;;;;;;;1.00;0.90;;;16.30;76.80;;;;;;5035408;28;20124;-78
2021/07/15 01:04:12;;;;;;;1.38;1.15;;;16.30;77.00;;;;;;5033842;28;20068;-78
2021/07/15 01:06:38;;;;;;;1.10;1.00;;;16.30;77.00;;;;;;5048009;28;20041;-78
2021/07/15 01:09:04;;;;;;;1.02;0.93;;;16.30;76.90;;;;;;5055061;28;20107;-78
2021/07/15 01:11:48;;;;;;;1.15;1.05;;;16.20;77.20;;;;;;5053533;28;20071;-78
2021/07/15 01:14:59;;;;;;;1.40;1.23;;;16.10;77.50;;;;;;5053298;28;20017;-78
2021/07/15 01:17:30;;;;;;;1.17;1.08;;;16.10;77.40;;;;;;5034837;28;20101;-78
2021/07/15 01:20:25;;;;;;;1.40;1.30;;;16.20;77.70;;;;;;5037667;28;20026;-78
2021/07/15 01:23:41;;;;;;;1.20;0.85;;;16.20;77.50;;;;;;5037550;28;20514;-78
2021/07/15 01:26:15;;;;;;;1.20;1.00;;;16.20;77.20;;;;;;5033376;28;20045;-78
2021/07/15 01:29:02;;;;;;;1.10;1.00;;;16.00;77.60;;;;;;5038989;28;20033;-78
2021/07/15 01:31:33;;;;;;;1.10;0.90;;;16.10;77.50;;;;;;5038782;28;20033;-79
2021/07/15 01:34:01;;;;;;;1.50;0.95;;;16.10;77.30;;;;;;5038796;28;20028;-78
2021/07/15 01:36:34;;;;;;;1.08;0.98;;;16.10;77.80;;;;;;5052930;28;20021;-78
2021/07/15 01:39:07;;;;;;;1.10;0.93;;;16.20;77.50;;;;;;5054348;28;20021;-78
2021/07/15 01:41:47;;;;;;;1.30;1.02;;;16.30;77.20;;;;;;5039017;28;20030;-78
2021/07/15 01:44:21;;;;;;;1.13;0.88;;;16.30;77.20;;;;;;5038361;28;20567;-78
2021/07/15 01:46:46;;;;;;;1.20;1.10;;;16.40;77.00;;;;;;5038667;28;20546;-77
2021/07/15 01:49:12;;;;;;;1.02;0.93;;;16.50;76.90;;;;;;5038558;28;20022;-79
2021/07/15 01:51:39;;;;;;;1.48;0.90;;;16.40;77.00;;;;;;5038493;28;20026;-78
2021/07/15 01:54:06;;;;;;;1.10;0.93;;;16.30;77.90;;;;;;5042387;28;20080;-79
2021/07/15 01:56:34;;;;;;;0.85;0.80;;;16.30;77.50;;;;;;5038468;28;20078;-78
2021/07/15 01:59:12;;;;;;;1.00;0.90;;;16.40;77.50;;;;;;5038561;28;20043;-78
2021/07/15 02:01:39;;;;;;;1.13;1.02;;;16.30;77.60;;;;;;5038488;28;20058;-78
2021/07/15 02:04:06;;;;;;;1.17;1.00;;;16.30;77.80;;;;;;5037057;28;20091;-79
2021/07/15 02:06:33;;;;;;;1.02;0.93;;;16.30;78.20;;;;;;5045444;28;20444;-78
2021/07/15 02:09:00;;;;;;;1.10;1.00;;;16.20;78.40;;;;;;5038072;28;20492;-78
2021/07/15 02:11:33;;;;;;;1.10;0.98;;;16.30;79.00;;;;;;5036749;28;20075;-78
2021/07/15 02:14:05;;;;;;;1.20;1.00;;;16.20;79.00;;;;;;5038118;28;20056;-78
2021/07/15 02:16:33;;;;;;;1.52;1.20;;;16.20;78.90;;;;;;5042572;28;20049;-79
2021/07/15 02:19:00;;;;;;;1.38;1.10;;;16.20;78.70;;;;;;5056685;28;20111;-79
2021/07/15 02:21:30;;;;;;;1.40;1.00;;;16.30;78.50;;;;;;5057879;28;20025;-78
2021/07/15 02:23:57;;;;;;;1.30;1.13;;;16.30;78.20;;;;;;5057913;28;20033;-78
2021/07/15 02:26:25;;;;;;;1.30;1.00;;;16.30;78.30;;;;;;5052053;28;20029;-78
2021/07/15 02:28:50;;;;;;;1.30;1.20;;;16.30;78.20;;;;;;5038089;28;20032;-78
2021/07/15 02:31:20;;;;;;;1.58;1.00;;;16.30;78.00;;;;;;5037689;28;20033;-78
2021/07/15 02:33:53;;;;;;;1.43;1.07;;;16.30;78.00;;;;;;5036612;28;20124;-79
2021/07/15 02:36:20;;;;;;;1.10;1.00;;;16.30;77.80;;;;;;5036306;28;20033;-77
2021/07/15 02:38:57;;;;;;;1.42;1.02;;;16.20;77.80;;;;;;5036445;28;20044;-78
2021/07/15 02:41:23;;;;;;;1.20;1.10;;;16.20;78.30;;;;;;5037913;28;20025;-78
2021/07/15 02:43:49;;;;;;;1.20;1.10;;;16.10;78.90;;;;;;5037692;28;20506;-78
2021/07/15 02:46:15;;;;;;;1.50;1.25;;;16.00;78.80;;;;;;5037550;28;20056;-78
2021/07/15 02:48:41;;;;;;;1.10;1.00;;;16.00;78.90;;;;;;5035817;28;20029;-78
2021/07/15 02:51:07;;;;;;;1.17;1.08;;;16.00;78.40;;;;;;5037375;28;20052;-78
2021/07/15 02:53:33;;;;;;;1.30;1.20;;;16.00;79.00;;;;;;5059061;28;20016;-78
2021/07/15 02:56:10;;;;;;;1.70;1.15;;;16.00;78.90;;;;;;5077301;28;20441;-78
2021/07/15 02:58:41;;;;;;;1.92;1.27;;;16.00;78.40;;;;;;5039267;28;20029;-78
2021/07/15 03:01:13;;;;;;;1.55;1.25;;;16.00;79.00;;;;;;5037051;28;20412;-78
2021/07/15 03:03:59;;;;;;;1.42;1.30;;;16.00;79.10;;;;;;5037288;28;20155;-78
2021/07/15 03:06:34;;;;;;;1.40;1.20;;;15.90;79.50;;;;;;5036902;28;22194;-78
2021/07/15 03:09:03;;;;;;;1.45;1.35;;;15.90;79.80;;;;;;5053359;28;20040;-79
2021/07/15 03:11:37;;;;;;;1.17;1.02;;;15.90;79.50;;;;;;5047196;28;20151;-78
2021/07/15 03:14:05;;;;;;;1.30;1.20;;;16.00;80.10;;;;;;5056950;28;20391;-78
2021/07/15 03:16:33;;;;;;;1.10;1.00;;;16.00;80.10;;;;;;5056799;28;20479;-77
2021/07/15 03:19:05;;;;;;;1.23;1.13;;;16.10;79.40;;;;;;5055865;28;20479;-78
2021/07/15 03:21:33;;;;;;;1.80;1.30;;;16.00;79.70;;;;;;5039970;28;20061;-77
2021/07/15 03:24:03;;;;;;;1.20;1.05;;;16.10;79.30;;;;;;5036786;28;20030;-78
2021/07/15 03:26:31;;;;;;;1.38;1.27;;;16.20;79.20;;;;;;5039972;28;20029;-78
2021/07/15 03:28:58;;;;;;;1.20;1.10;;;16.20;79.00;;;;;;5036674;28;20037;-78
2021/07/15 03:31:24;;;;;;;1.63;1.10;;;16.20;79.50;;;;;;5036779;28;20021;-77
2021/07/15 03:33:51;;;;;;;1.40;1.30;;;16.20;79.40;;;;;;5036521;28;20384;-77
2021/07/15 03:36:18;;;;;;;1.10;1.00;;;16.30;79.30;;;;;;5036652;28;20052;-78
2021/07/15 03:38:46;;;;;;;1.55;1.17;;;16.30;79.50;;;;;;5038450;28;20056;-77
2021/07/15 03:41:13;;;;;;;1.88;1.42;;;16.30;79.50;;;;;;5056492;28;20059;-78
2021/07/15 03:43:41;;;;;;;1.20;1.10;;;16.30;79.00;;;;;;5056284;28;20502;-77
2021/07/15 03:46:08;;;;;;;1.67;1.40;;;16.50;79.50;;;;;;5052936;28;20470;-78
2021/07/15 03:48:36;;;;;;;1.27;1.17;;;16.40;79.10;;;;;;5036322;28;20029;-78
2021/07/15 03:51:05;;;;;;;1.65;1.30;;;16.50;79.10;;;;;;5036006;28;20464;-78
2021/07/15 03:53:33;;;;;;;1.20;0.93;;;16.50;79.30;;;;;;5058005;28;20514;-77
2021/07/15 03:56:00;;;;;;;1.63;1.27;;;16.50;79.00;;;;;;5076204;28;20036;-78
2021/07/15 03:58:45;;;;;;;1.65;1.30;;;16.50;79.40;;;;;;5073961;28;20025;-78
2021/07/15 04:01:12;;;;;;;1.50;1.35;;;16.50;79.20;;;;;;5051295;28;20057;-78
2021/07/15 04:03:40;;;;;;;1.70;1.40;;;16.50;78.90;;;;;;5035919;28;20033;-77
2021/07/15 04:06:08;;;;;;;1.50;1.38;;;16.60;79.10;;;;;;5034719;28;20033;-78
2021/07/15 04:08:38;;;;;;;1.58;1.48;;;16.60;79.60;;;;;;5049970;28;20112;-78
2021/07/15 04:11:06;;;;;;;1.63;1.40;;;16.60;79.20;;;;;;5034874;28;20025;-78
2021/07/15 04:13:35;;;;;;;1.50;1.40;;;16.70;79.00;;;;;;5035961;28;20056;-78
2021/07/15 04:16:36;;;;;;;1.95;1.75;;;16.70;79.40;;;;;;5035563;28;20048;-78
2021/07/15 04:19:05;;;;;;;1.58;1.30;;;16.70;79.30;;;;;;5035823;28;20021;-78
2021/07/15 04:21:35;;;;;;;1.70;1.60;;;16.80;79.30;;;;;;5035633;28;20033;-78
2021/07/15 04:24:02;;;;;;;1.63;1.52;;;16.70;79.40;;;;;;5051025;28;20494;-78
2021/07/15 04:26:28;;;;;;;1.65;1.40;;;16.80;79.50;;;;;;5034572;28;20067;-78
2021/07/15 04:28:54;;;;;;;1.80;1.70;;;16.80;79.40;;;;;;5035618;28;20037;-78
2021/07/15 04:31:49;;;;;;;1.70;1.60;;;16.80;79.60;;;;;;5035490;28;20115;-78
2021/07/15 04:34:15;;;;;;;1.77;1.67;;;16.80;79.70;;;;;;5035692;28;20487;-78
2021/07/15 04:36:43;;;;;;;1.77;1.67;;;16.80;80.00;;;;;;5035604;28;20017;-78
2021/07/15 04:39:09;;;;;;;1.55;1.45;;;16.80;80.70;;;;;;5035474;28;20494;-77
2021/07/15 04:41:35;;;;;;;1.80;1.70;;;16.80;80.00;;;;;;5035399;28;20081;-78
2021/07/15 04:44:01;;;;;;;1.50;1.40;;;16.80;80.00;;;;;;5035524;28;20025;-78
2021/07/15 04:46:27;;;;;;;1.90;1.80;;;16.80;80.10;;;;;;5050838;28;20033;-78
2021/07/15 04:48:53;;;;;;;2.42;1.63;;;16.80;80.10;;;;;;5045118;28;20029;-78
2021/07/15 04:51:21;;;;;;;2.65;1.80;;;16.80;80.20;;;;;;5049782;28;20037;-77
2021/07/15 04:53:47;;;;;;;2.42;1.50;;;16.70;80.60;;;;;;5061239;28;20024;-76
2021/07/15 04:56:14;;;;;;;1.92;1.77;;;16.70;81.00;;;;;;5055336;28;20030;-77
2021/07/15 04:58:43;;;;;;;2.20;1.83;;;16.70;80.90;;;;;;5035262;28;20052;-77
2021/07/15 05:01:11;;;;;;;1.60;1.50;;;16.80;80.90;;;;;;5034805;28;20061;-77
2021/07/15 05:03:38;;;;;;;2.00;1.45;;;16.80;80.60;;;;;;5033895;28;20034;-77
2021/07/15 05:06:06;;;;;;;2.47;1.67;;;16.80;80.60;;;;;;5035245;28;20033;-77
2021/07/15 05:08:33;;;;;;;3.20;1.77;;;16.90;80.40;;;;;;5033897;28;20036;-77
2021/07/15 05:11:00;;;;;;;1.70;1.60;;;16.90;80.30;;;;;;5047218;28;20029;-75
2021/07/15 05:13:26;;;;;;;1.70;1.55;;;16.90;80.70;;;;;;5035121;28;20104;-79
2021/07/15 05:15:53;;;;;;;2.25;1.50;;;17.00;80.20;;;;;;5034039;28;20044;-78
2021/07/15 05:18:20;;;;;;;1.75;1.50;;;17.00;80.20;;;;;;5034787;28;20432;-81
2021/07/15 05:20:46;;;;;;;2.33;1.50;;;17.00;80.00;;;;;;5041838;28;20156;-76
2021/07/15 05:23:12;;;;;;;1.48;1.38;;;17.10;80.10;;;;;;5054935;28;20061;-76
2021/07/15 05:25:38;;;;;;;1.60;1.40;;;17.10;80.00;;;;;;5055084;28;20056;-76
2021/07/15 05:28:04;;;;;;;1.65;1.55;;;17.20;79.80;;;;;;5035060;28;20036;-76
2021/07/15 05:30:30;;;;;;;2.40;1.67;;;17.30;80.00;;;;;;5033376;28;20076;-75
2021/07/15 05:32:56;;;;;;;2.75;1.55;;;17.30;80.00;;;;;;5033033;28;20487;-76
2021/07/15 05:35:22;;;;;;;1.60;1.17;;;17.30;79.60;;;;;;5026947;28;20122;-75
2021/07/15 05:37:47;;;;;;;1.67;1.50;;;17.40;79.40;;;;;;5034644;28;20076;-75
2021/07/15 05:40:14;;;;;;;1.55;1.40;;;17.50;79.40;;;;;;5033381;28;20029;-76
2021/07/15 05:42:39;;;;;;;1.38;1.27;;;17.60;79.00;;;;;;5034716;28;20061;-76
2021/07/15 05:45:06;;;;;;;2.22;1.60;;;17.60;79.40;;;;;;5034514;28;20033;-76
2021/07/15 05:47:32;;;;;;;2.00;1.58;;;17.70;79.00;;;;;;5035086;28;20044;-79
2021/07/15 05:49:58;;;;;;;2.42;1.48;;;17.70;79.00;;;;;;5034447;28;20529;-75
2021/07/15 05:52:23;;;;;;;1.80;1.50;;;17.80;78.70;;;;;;5036697;28;20651;-74
2021/07/15 05:54:50;;;;;;;2.83;1.80;;;17.80;79.10;;;;;;5039499;28;20029;-74
2021/07/15 05:57:16;;;;;;;3.15;1.50;;;17.80;78.80;;;;;;5034381;28;20021;-74
2021/07/15 05:59:42;;;;;;;1.98;1.48;;;17.80;79.60;;;;;;5034261;28;20028;-74
2021/07/15 06:02:09;;;;;;;1.70;1.60;;;17.80;79.20;;;;;;5033071;28;20112;-74
2021/07/15 06:04:34;;;;;;;1.83;1.73;;;17.80;78.90;;;;;;5034138;28;20025;-74
2021/07/15 06:07:00;;;;;;;1.88;1.70;;;17.90;79.10;;;;;;5049847;28;20083;-73
2021/07/15 06:09:26;;;;;;;2.08;1.77;;;17.90;79.10;;;;;;5037490;28;20510;-74
2021/07/15 06:11:51;;;;;;;1.88;1.77;;;17.80;79.60;;;;;;5050689;28;20823;-74
2021/07/15 06:14:17;;;;;;;1.75;1.65;;;17.80;79.30;;;;;;5037952;28;20077;-74
2021/07/15 06:16:42;;;;;;;2.05;1.85;;;17.80;79.40;;;;;;5038101;28;20100;-74
2021/07/15 06:19:08;;;;;;;2.28;1.67;;;18.00;79.10;;;;;;5041530;28;20052;-74
2021/07/15 06:21:34;;;;;;;2.08;1.88;;;18.00;79.10;;;;;;5058015;28;20033;-74
2021/07/15 06:23:59;;;;;;;2.03;1.83;;;18.10;78.90;;;;;;5051989;28;20033;-74
2021/07/15 06:26:25;;;;;;;1.98;1.70;;;18.10;78.60;;;;;;5036861;28;20041;-73
2021/07/15 06:28:51;;;;;;;1.60;1.50;;;18.10;78.60;;;;;;5037788;28;20131;-74
2021/07/15 06:31:16;;;;;;;2.13;1.60;;;18.00;78.80;;;;;;5037583;28;20129;-74
2021/07/15 06:33:42;;;;;;;2.05;1.58;;;18.20;78.70;;;;;;5036569;28;20479;-74
2021/07/15 06:36:09;;;;;;;1.63;1.52;;;18.30;78.40;;;;;;5054838;28;20159;-74
2021/07/15 06:38:36;;;;;;;1.67;1.50;;;18.30;78.40;;;;;;5056520;28;20524;-74
2021/07/15 06:41:04;;;;;;;1.70;1.60;;;18.30;78.10;;;;;;5056205;28;20557;-74
2021/07/15 06:43:31;;;;;;;1.77;1.52;;;18.40;77.70;;;;;;5046582;28;20455;-74
2021/07/15 06:45:56;;;;;;;1.30;1.20;;;18.40;77.90;;;;;;5037524;28;20087;-74
2021/07/15 06:48:22;;;;;;;1.50;1.40;;;18.40;78.00;;;;;;5036043;28;20029;-74
2021/07/15 06:50:48;;;;;;;1.75;1.60;;;18.40;78.00;;;;;;5052589;28;20045;-74
2021/07/15 06:53:14;;;;;;;1.58;1.30;;;18.40;78.10;;;;;;5053090;28;20028;-74
2021/07/15 06:55:40;;;;;;;1.98;1.70;;;18.40;78.00;;;;;;5075980;28;20024;-73
2021/07/15 06:58:06;;;;;;;1.63;1.50;;;18.40;77.90;;;;;;5061144;28;20361;-74
2021/07/15 07:00:32;;;;;;;2.88;1.42;;;18.50;77.70;;;;;;5037229;28;20083;-74
2021/07/15 07:02:58;;;;;;;1.67;1.58;;;18.50;77.80;;;;;;5036169;28;20056;-74
2021/07/15 07:05:24;;;;;;;2.55;1.30;;;18.60;77.40;;;;;;5037253;28;20026;-74
2021/07/15 07:07:50;;;;;;;1.35;1.23;;;18.70;77.30;;;;;;5035609;28;20026;-74
2021/07/15 07:10:17;;;;;;;1.92;1.35;;;18.60;77.40;;;;;;5037019;28;20056;-74
2021/07/15 07:12:43;;;;;;;1.50;1.40;;;18.80;77.20;;;;;;5037038;28;20036;-74
2021/07/15 07:15:11;;;;;;;1.67;1.20;;;18.90;77.00;;;;;;5052234;28;20029;-74
2021/07/15 07:17:37;;;;;;;1.30;1.00;;;18.90;76.80;;;;;;5052219;28;20076;-74
2021/07/15 07:20:06;;;;;;;1.60;1.23;;;19.00;76.60;;;;;;5036694;28;20025;-74
2021/07/15 07:22:31;;;;;;;1.67;1.33;;;19.00;76.50;;;;;;5035490;28;20112;-74
2021/07/15 07:24:58;;;;;;;1.30;1.13;;;19.10;76.40;;;;;;5050970;28;20034;-74
2021/07/15 07:27:23;;;;;;;1.50;1.40;;;19.00;75.90;;;;;;5036831;28;20021;-74
2021/07/15 07:29:49;;;;;;;1.42;1.08;;;19.10;76.10;;;;;;5036452;28;20518;-74
2021/07/15 07:32:15;;;;;;;1.30;1.00;;;19.10;76.30;;;;;;5053785;28;20052;-74
2021/07/15 07:34:40;;;;;;;1.30;1.00;;;19.30;75.80;;;;;;5056512;28;20613;-74
2021/07/15 07:37:06;;;;;;;1.17;0.90;;;19.30;75.30;;;;;;5055082;28;20459;-74
2021/07/15 07:39:31;;;;;;;1.20;1.08;;;19.30;75.30;;;;;;5056554;28;20021;-74
2021/07/15 07:41:57;;;;;;;1.83;0.93;;;19.40;75.10;;;;;;5043448;28;20037;-74
2021/07/15 07:44:23;;;;;;;1.25;0.95;;;19.50;75.20;;;;;;5036418;28;20026;-74
2021/07/15 07:46:48;;;;;;;1.80;1.00;;;19.60;74.60;;;;;;5034890;28;20459;-74
2021/07/15 07:53:48;;;;;;;1.20;1.08;;;19.70;73.90;;;;;;5080604;28;20377;-73
2021/07/15 07:56:16;;;;;;;1.13;0.80;;;19.50;74.70;;;;;;5057852;28;20142;-76
2021/07/15 07:58:42;;;;;;;1.17;0.98;;;19.50;74.90;;;;;;5045126;28;20017;-75
2021/07/15 08:01:08;;;;;;;1.20;0.90;;;19.40;74.50;;;;;;5048004;28;20041;-74
2021/07/15 08:03:34;;;;;;;2.17;1.00;;;19.60;74.70;;;;;;5064597;28;20099;-74
2021/07/15 08:05:59;;;;;;;1.00;0.60;;;19.80;74.50;;;;;;5056449;28;20077;-75
2021/07/15 08:08:26;;;;;;;1.60;0.90;;;20.00;73.30;;;;;;5055609;28;20029;-74
2021/07/15 08:10:52;;;;;;;1.00;0.70;;;20.00;73.10;;;;;;5054330;28;20556;-75
2021/07/15 08:13:18;;;;;;;1.00;0.77;;;20.30;72.90;;;;;;5051169;28;20072;-74
2021/07/15 08:15:44;;;;;;;1.65;0.80;;;20.40;72.40;;;;;;5050068;28;20033;-74
2021/07/15 08:18:10;;;;;;;0.95;0.70;;;20.60;72.00;;;;;;5055991;28;20058;-74
2021/07/15 08:20:35;;;;;;;1.58;0.70;;;21.00;70.70;;;;;;5058484;28;20041;-75
2021/07/15 08:23:04;;;;;;;1.23;0.60;;;21.20;69.20;;;;;;5053966;28;20037;-75
2021/07/15 08:25:30;;;;;;;1.00;0.70;;;21.20;70.00;;;;;;5050622;28;20093;-75
2021/07/15 08:27:55;;;;;;;0.70;0.52;;;21.40;69.80;;;;;;5053889;28;20507;-74
2021/07/15 08:30:21;;;;;;;0.77;0.50;;;21.30;69.70;;;;;;5050928;28;20092;-74
2021/07/15 08:32:47;;;;;;;0.95;0.70;;;21.20;70.10;;;;;;5083923;28;20028;-74
2021/07/15 08:35:13;;;;;;;1.23;0.60;;;21.40;68.80;;;;;;5054396;28;20039;-75
2021/07/15 08:37:39;;;;;;;0.77;0.52;;;21.90;68.60;;;;;;5057406;28;20100;-75
2021/07/15 08:40:07;;;;;;;1.67;0.63;;;22.30;67.50;;;;;;5051621;28;20059;-75
2021/07/15 08:42:34;;;;;;;1.10;0.70;;;22.40;66.70;;;;;;5055131;28;20053;-74
2021/07/15 08:45:02;;;;;;;1.20;0.60;;;22.50;66.00;;;;;;5060791;28;20033;-74
2021/07/15 08:47:29;;;;;;;0.70;0.43;;;22.20;65.20;;;;;;5049050;28;20049;-75
2021/07/15 08:49:55;;;;;;;0.77;0.60;;;22.30;66.90;;;;;;5057442;28;20030;-75
2021/07/15 08:52:21;;;;;;;0.63;0.40;;;23.60;64.00;;;;;;5055200;28;20417;-75
2021/07/15 08:57:15;;;;;;;0.98;0.60;;;24.70;59.40;;;;;;5046155;28;20105;-75
2021/07/15 08:59:40;;;;;;;0.88;0.40;;;24.90;59.40;;;;;;5054685;28;20033;-75
2021/07/15 09:02:06;;;;;;;0.70;0.40;;;24.30;58.50;;;;;;5052532;28;20031;-74
2021/07/15 09:04:32;;;;;;;1.08;0.40;;;23.80;60.80;;;;;;5041480;28;20030;-74
2021/07/15 09:06:58;;;;;;;0.90;0.50;;;23.30;62.10;;;;;;5043747;28;20037;-75
2021/07/15 09:09:23;;;;;;;0.70;0.40;;;23.30;62.70;;;;;;5044990;28;20101;-75
2021/07/15 09:11:49;;;;;;;0.80;0.40;;;24.20;61.10;;;;;;5037117;28;20034;-75
2021/07/15 09:14:22;;;;;;;0.70;0.43;;;24.30;59.60;;;;;;5074535;28;20028;-74
2021/07/15 09:16:57;;;;;;;0.50;0.30;;;26.20;57.20;;;;;;5040332;28;20671;-75
2021/07/15 09:19:25;;;;;;;0.80;0.40;;;27.50;52.40;;;;;;5042831;28;20068;-75
2021/07/15 09:21:52;;;;;;;0.68;0.40;;;28.30;49.50;;;;;;5039430;28;20679;-75
2021/07/15 09:24:33;;;;;;;0.45;0.25;;;29.00;47.10;;;;;;5040158;28;20127;-75
2021/07/15 09:27:08;;;;;;;0.50;0.30;;;28.00;48.60;;;;;;5039866;28;20032;-75
2021/07/15 09:29:34;;;;;;;0.65;0.28;;;26.80;49.80;;;;;;5046192;28;20036;-74
2021/07/15 09:32:01;;;;;;;0.75;0.30;;;26.10;52.70;;;;;;5034048;28;20403;-74
2021/07/15 09:34:28;;;;;;;0.57;0.35;;;26.00;53.50;;;;;;5043417;28;20025;-74
2021/07/15 09:36:55;;;;;;;0.60;0.30;;;25.80;53.80;;;;;;5041458;28;20021;-75
2021/07/15 09:39:39;;;;;;;0.85;0.40;;;25.30;54.80;;;;;;5040711;28;20029;-75
2021/07/15 09:42:04;;;;;;;0.60;0.30;;;27.30;51.80;;;;;;5042047;28;20032;-75
2021/07/15 09:44:35;;;;;;;0.95;0.35;;;29.00;48.00;;;;;;5040287;28;20055;-75
2021/07/15 09:47:02;;;;;;;0.50;0.30;;;30.10;44.10;;;;;;5043324;28;20025;-75
2021/07/15 09:49:32;;;;;;;0.60;0.30;;;31.00;43.30;;;;;;5038247;28;20037;-76
2021/07/15 09:51:59;;;;;;;0.60;0.30;;;31.70;42.70;;;;;;5030075;28;20037;-75
2021/07/15 09:54:25;;;;;;;0.47;0.20;;;32.00;41.30;;;;;;5038249;28;20021;-75
2021/07/15 09:56:52;;;;;;;0.50;0.30;;;32.00;38.20;;;;;;5033478;28;20057;-75
2021/07/15 09:59:17;;;;;;;0.50;0.20;;;32.40;40.00;;;;;;5033049;28;20031;-75
2021/07/15 10:01:44;;;;;;;0.38;0.10;;;32.80;39.20;;;;;;5032377;28;20884;-74
2021/07/15 10:04:10;;;;;;;0.93;0.30;;;31.70;41.20;;;;;;5029818;28;20084;-76
2021/07/15 10:06:44;;;;;;;0.70;0.10;;;31.60;41.20;;;;;;5031088;28;20030;-74
2021/07/15 10:09:20;;;;;;;0.98;0.50;;;30.50;41.50;;;;;;5031361;28;20050;-75
2021/07/15 10:11:46;;;;;;;0.47;0.20;;;31.30;42.30;;;;;;5016168;28;20076;-76
2021/07/15 10:14:13;;;;;;;1.40;0.32;;;30.80;41.60;;;;;;5015985;28;20034;-74
2021/07/15 10:16:45;;;;;;;0.82;0.30;;;30.10;42.80;;;;;;5030028;28;20040;-74
2021/07/15 10:19:21;;;;;;;0.85;0.28;;;29.30;44.70;;;;;;5016216;28;20029;-74
2021/07/15 10:21:59;;;;;;;0.55;0.30;;;28.80;45.10;;;;;;5015838;28;20033;-75
2021/07/15 10:24:26;;;;;;;0.52;0.30;;;28.60;45.80;;;;;;5016164;28;20038;-75
2021/07/15 10:26:57;;;;;;;0.70;0.40;;;29.60;45.20;;;;;;5015829;28;20058;-75
2021/07/15 10:29:24;;;;;;;0.60;0.30;;;30.50;43.90;;;;;;5029891;28;20081;-75
2021/07/15 10:31:52;;;;;;;0.52;0.20;;;30.40;43.60;;;;;;5034533;28;20029;-74
2021/07/15 10:34:19;;;;;;;0.20;0.20;;;30.10;44.80;;;;;;5034394;28;20025;-74
2021/07/15 10:36:45;;;;;;;0.43;0.22;;;29.10;43.90;;;;;;5034066;28;20164;-74
2021/07/15 10:39:16;;;;;;;1.15;0.50;;;28.30;46.20;;;;;;5018850;28;20068;-74
2021/07/15 10:41:44;;;;;;;0.50;0.30;;;28.60;45.90;;;;;;5015555;28;20029;-75
2021/07/15 10:44:11;;;;;;;0.47;0.20;;;28.80;46.70;;;;;;5030360;28;20029;-75
2021/07/15 10:46:37;;;;;;;0.40;0.20;;;28.80;46.90;;;;;;5033901;28;20045;-75
2021/07/15 10:49:07;;;;;;;0.40;0.20;;;28.60;46.80;;;;;;5030124;28;20097;-75
2021/07/15 10:51:37;;;;;;;0.45;0.25;;;28.30;47.50;;;;;;5030582;28;20026;-75
2021/07/15 10:54:06;;;;;;;0.45;0.20;;;28.10;47.10;;;;;;5039205;28;20021;-75
2021/07/15 10:56:33;;;;;;;0.30;0.20;;;28.20;47.40;;;;;;5033612;28;20385;-76
2021/07/15 10:59:00;;;;;;;0.50;0.20;;;28.40;46.60;;;;;;5019464;28;20398;-75
2021/07/15 11:01:41;;;;;;;0.43;0.20;;;28.20;48.00;;;;;;5015140;28;20018;-76
2021/07/15 11:04:18;;;;;;;0.50;0.20;;;27.80;48.00;;;;;;5030230;28;20048;-75
2021/07/15 11:06:47;;;;;;;0.52;0.28;;;27.50;49.60;;;;;;5017855;28;20021;-75
2021/07/15 11:09:31;;;;;;;0.60;0.30;;;27.60;47.10;;;;;;5033548;28;20640;-75
2021/07/15 11:11:58;;;;;;;1.10;0.30;;;27.50;47.20;;;;;;5028387;28;20097;-74
2021/07/15 11:14:49;;;;;;;0.50;0.20;;;27.20;46.80;;;;;;5013778;28;20381;-74
2021/07/15 11:17:21;;;;;;;0.50;0.20;;;27.20;49.80;;;;;;5029754;28;20041;-76
2021/07/15 11:19:58;;;;;;;0.63;0.25;;;27.30;50.00;;;;;;5015085;28;20034;-75
2021/07/15 11:22:43;;;;;;;1.55;0.30;;;27.60;51.20;;;;;;5033447;28;20034;-75
2021/07/15 11:25:13;;;;;;;0.57;0.30;;;27.60;48.30;;;;;;5030648;28;20017;-75
2021/07/15 11:27:53;;;;;;;0.90;0.30;;;27.40;49.40;;;;;;5035173;28;20056;-75
2021/07/15 11:30:32;;;;;;;0.52;0.20;;;27.20;49.10;;;;;;5031231;28;20022;-75
2021/07/15 11:33:21;;;;;;;0.63;0.30;;;27.20;50.80;;;;;;5014948;28;20034;-75
2021/07/15 11:36:09;;;;;;;0.40;0.20;;;27.40;52.10;;;;;;5029776;28;20042;-74
2021/07/15 11:38:40;;;;;;;0.50;0.20;;;27.10;49.80;;;;;;5013519;28;20108;-74
2021/07/15 11:41:16;;;;;;;0.52;0.30;;;27.20;50.00;;;;;;5014915;28;20034;-75
2021/07/15 11:43:52;;;;;;;0.40;0.30;;;27.10;50.20;;;;;;5024669;28;20044;-75
2021/07/15 11:46:37;;;;;;;0.35;0.20;;;26.80;50.00;;;;;;5031820;28;20021;-74
2021/07/15 11:49:07;;;;;;;0.60;0.28;;;27.10;51.10;;;;;;5034396;28;20035;-75
2021/07/15 11:51:45;;;;;;;0.40;0.20;;;27.20;51.20;;;;;;5034086;28;20104;-75
2021/07/15 11:54:32;;;;;;;0.30;0.20;;;27.20;51.20;;;;;;5049149;28;20029;-75
2021/07/15 11:57:19;;;;;;;0.40;0.20;;;27.40;51.80;;;;;;5018464;28;20061;-76
2021/07/15 12:00:05;;;;;;;0.30;0.20;;;27.40;48.40;;;;;;5013198;28;20022;-76
2021/07/15 12:02:39;;;;;;;0.30;0.20;;;27.60;49.80;;;;;;5014619;28;20026;-76
2021/07/15 12:05:20;;;;;;;0.40;0.20;;;27.80;48.50;;;;;;5014407;28;20025;-76
2021/07/15 12:07:51;;;;;;;0.30;0.20;;;27.90;48.40;;;;;;5018998;28;20089;-76
2021/07/15 12:10:19;;;;;;;0.60;0.30;;;27.80;48.80;;;;;;5033043;28;20040;-75
2021/07/15 12:12:46;;;;;;;0.52;0.25;;;27.90;48.30;;;;;;5034328;28;20033;-75
2021/07/15 12:15:17;;;;;;;0.47;0.20;;;27.90;48.60;;;;;;5032602;28;20588;-75
2021/07/15 12:17:43;;;;;;;0.50;0.20;;;27.90;47.40;;;;;;5034153;28;20572;-75
2021/07/15 12:20:11;;;;;;;0.70;0.20;;;27.60;46.70;;;;;;5025572;28;20060;-75
2021/07/15 12:22:53;;;;;;;0.43;0.30;;;27.50;48.40;;;;;;5014452;28;20714;-76
2021/07/15 12:25:30;;;;;;;0.60;0.30;;;27.80;48.80;;;;;;5013158;28;20029;-76
2021/07/15 12:28:04;;;;;;;0.47;0.25;;;28.10;47.90;;;;;;5027726;28;20048;-76
2021/07/15 12:30:45;;;;;;;0.40;0.25;;;28.10;45.30;;;;;;5032563;28;20025;-75
2021/07/15 12:33:12;;;;;;;0.40;0.20;;;28.20;47.10;;;;;;5032901;28;20042;-75
2021/07/15 12:35:43;;;;;;;0.98;0.28;;;28.60;48.00;;;;;;5029887;28;20072;-76
2021/07/15 12:38:19;;;;;;;1.10;0.30;;;28.80;47.40;;;;;;5032383;28;20033;-76
2021/07/15 12:40:47;;;;;;;0.38;0.20;;;28.80;46.20;;;;;;5036240;28;20064;-75
2021/07/15 12:43:18;;;;;;;0.60;0.20;;;28.70;46.10;;;;;;5035975;28;20067;-75
2021/07/15 12:45:47;;;;;;;0.50;0.22;;;28.70;45.00;;;;;;5036296;28;20052;-75
2021/07/15 12:48:15;;;;;;;0.20;0.10;;;28.50;46.20;;;;;;5035835;28;20085;-76
2021/07/15 12:50:43;;;;;;;0.32;0.20;;;28.50;46.20;;;;;;5037070;28;20544;-76
2021/07/15 12:53:26;;;;;;;0.38;0.20;;;28.30;44.40;;;;;;5044793;28;20049;-75
2021/07/15 12:55:58;;;;;;;0.47;0.20;;;28.60;44.90;;;;;;5056061;28;20507;-76
2021/07/15 12:58:25;;;;;;;0.40;0.30;;;28.50;45.80;;;;;;5038946;28;20022;-75
2021/07/15 13:00:50;;;;;;;0.30;0.20;;;28.70;44.90;;;;;;5017477;28;20041;-75
2021/07/15 13:03:19;;;;;;;0.20;0.15;;;28.80;45.20;;;;;;5027864;28;20025;-75
2021/07/15 13:05:45;;;;;;;0.20;0.10;;;28.20;45.50;;;;;;5035933;28;20101;-75